Time;durP1;ratioP1;P1;durP2;ratioP2;P2;SDS_P1;SDS_P2;PMS_P1;PMS_P2;Temp;Humidity;BMP_temperature;BMP_pressure;BME280_temperature;BME280_humidity;BME280_pressure;Samples;Min_cycle;Max_cycle;Signal;HPM_P1;HPM_P2
2023/06/06 00:01:49;;;;;;;5.70;3.50;;;17.50;99.90;;;;;;4195245;28;20733;-77
2023/06/06 00:03:51;;;;;;;4.80;3.27;;;17.50;99.90;;;;;;4194567;28;20226;-77
2023/06/06 00:05:53;;;;;;;4.90;3.33;;;17.40;99.90;;;;;;4194973;28;20217;-77
2023/06/06 00:07:56;;;;;;;5.10;3.70;;;17.40;99.90;;;;;;4195331;28;20211;-77
2023/06/06 00:09:58;;;;;;;5.67;3.30;;;17.40;99.90;;;;;;4192361;28;20583;-77
2023/06/06 00:12:00;;;;;;;5.87;3.67;;;17.40;99.90;;;;;;4193995;28;20947;-77
2023/06/06 00:14:02;;;;;;;6.00;4.13;;;17.40;99.90;;;;;;4192746;28;20275;-77
2023/06/06 00:16:06;;;;;;;8.10;4.23;;;17.40;99.90;;;;;;4195038;28;20769;-77
2023/06/06 00:18:08;;;;;;;6.33;4.03;;;17.40;99.90;;;;;;4193275;28;20602;-77
2023/06/06 00:20:11;;;;;;;4.90;3.60;;;17.40;99.90;;;;;;4192470;28;20690;-77
2023/06/06 00:22:15;;;;;;;5.60;3.57;;;17.40;99.90;;;;;;4193839;28;20210;-77
2023/06/06 00:24:17;;;;;;;5.43;3.77;;;17.40;99.90;;;;;;4194636;28;20572;-77
2023/06/06 00:26:20;;;;;;;5.60;3.67;;;17.40;99.90;;;;;;4191612;28;20680;-77
2023/06/06 00:28:22;;;;;;;4.03;3.37;;;17.40;99.90;;;;;;4193349;28;20581;-77
2023/06/06 00:30:24;;;;;;;4.67;3.30;;;17.40;99.90;;;;;;4194756;28;20244;-77
2023/06/06 00:32:28;;;;;;;4.00;3.13;;;17.40;99.90;;;;;;4188586;28;20317;-77
2023/06/06 00:34:30;;;;;;;4.90;3.63;;;17.40;99.90;;;;;;4194217;28;20302;-77
2023/06/06 00:36:32;;;;;;;6.17;3.40;;;17.40;99.90;;;;;;4191766;28;20242;-77
2023/06/06 00:38:34;;;;;;;5.13;3.70;;;17.40;99.90;;;;;;4195643;28;20223;-77
2023/06/06 00:40:36;;;;;;;5.53;3.20;;;17.40;99.90;;;;;;4193972;28;20225;-77
2023/06/06 00:42:38;;;;;;;4.50;3.20;;;17.50;99.90;;;;;;4194766;28;20744;-77
2023/06/06 00:44:40;;;;;;;5.43;3.33;;;17.40;99.90;;;;;;4193998;28;20202;-77
2023/06/06 00:46:43;;;;;;;6.17;3.43;;;17.40;99.90;;;;;;4192559;28;20199;-77
2023/06/06 00:48:47;;;;;;;4.50;3.07;;;17.40;99.90;;;;;;4193047;28;20200;-77
2023/06/06 00:50:50;;;;;;;4.30;3.30;;;17.40;99.90;;;;;;4190090;28;20222;-77
2023/06/06 00:52:54;;;;;;;5.90;3.17;;;17.40;99.90;;;;;;4192478;28;20230;-77
2023/06/06 00:54:57;;;;;;;5.33;3.63;;;17.40;99.90;;;;;;4193718;28;20301;-77
2023/06/06 00:57:00;;;;;;;4.73;3.50;;;17.40;99.90;;;;;;4193846;28;20214;-77
2023/06/06 00:59:03;;;;;;;6.77;4.27;;;17.50;99.90;;;;;;4191030;28;20224;-77
2023/06/06 01:01:06;;;;;;;7.00;4.70;;;17.40;99.90;;;;;;4192574;28;20210;-77
2023/06/06 01:03:10;;;;;;;8.67;5.60;;;17.50;99.90;;;;;;4193187;28;20955;-77
2023/06/06 01:05:13;;;;;;;8.63;5.10;;;17.40;99.90;;;;;;4193987;28;20202;-78
2023/06/06 01:07:17;;;;;;;8.63;5.50;;;17.40;99.90;;;;;;4194009;28;20230;-77
2023/06/06 01:09:19;;;;;;;7.80;5.10;;;17.50;99.90;;;;;;4194805;28;20217;-77
2023/06/06 01:11:30;;;;;;;6.87;4.57;;;17.40;99.90;;;;;;4195047;28;20652;-77
2023/06/06 01:13:39;;;;;;;7.10;4.33;;;17.40;99.90;;;;;;4190687;28;20229;-77
2023/06/06 01:15:46;;;;;;;4.80;3.60;;;17.40;99.90;;;;;;4189596;28;20193;-77
2023/06/06 01:17:50;;;;;;;5.10;3.57;;;17.40;99.90;;;;;;4188675;28;20210;-77
2023/06/06 01:19:53;;;;;;;5.20;3.53;;;17.30;99.90;;;;;;4195522;28;20216;-77
2023/06/06 01:21:58;;;;;;;5.80;3.60;;;17.40;99.90;;;;;;4194219;28;20301;-77
2023/06/06 01:24:00;;;;;;;4.83;3.50;;;17.30;99.90;;;;;;4193293;28;20230;-77
2023/06/06 01:26:05;;;;;;;5.93;3.73;;;17.30;99.90;;;;;;4194335;28;20697;-79
2023/06/06 01:28:13;;;;;;;4.67;3.30;;;17.30;99.90;;;;;;4191757;28;20209;-77
2023/06/06 01:30:18;;;;;;;3.90;3.03;;;17.30;99.90;;;;;;4191287;28;20209;-77
2023/06/06 01:32:27;;;;;;;5.73;3.73;;;17.30;99.90;;;;;;4194030;28;20230;-77
2023/06/06 01:34:34;;;;;;;5.10;3.23;;;17.30;99.90;;;;;;4191825;28;20300;-77
2023/06/06 01:36:42;;;;;;;4.73;3.30;;;17.30;99.90;;;;;;4190129;28;20736;-77
2023/06/06 01:38:50;;;;;;;3.83;2.77;;;17.30;99.90;;;;;;4191290;28;20297;-77
2023/06/06 01:40:55;;;;;;;4.40;2.77;;;17.30;99.90;;;;;;4192849;28;20948;-77
2023/06/06 01:42:58;;;;;;;4.70;3.17;;;17.30;99.90;;;;;;4193855;28;20313;-77
2023/06/06 01:45:01;;;;;;;4.37;3.17;;;17.30;99.90;;;;;;4193702;28;20223;-77
2023/06/06 01:47:04;;;;;;;7.73;3.80;;;17.30;99.90;;;;;;4193314;28;20782;-77
2023/06/06 01:49:06;;;;;;;7.10;3.73;;;17.40;99.90;;;;;;4193230;28;20647;-77
2023/06/06 01:51:08;;;;;;;4.67;3.57;;;17.30;99.90;;;;;;4193601;28;20279;-77
2023/06/06 01:53:10;;;;;;;6.07;3.40;;;17.30;99.90;;;;;;4191213;28;20332;-77
2023/06/06 01:55:14;;;;;;;4.40;3.20;;;17.30;99.90;;;;;;4194430;28;20210;-77
2023/06/06 01:57:15;;;;;;;4.83;3.60;;;17.30;99.90;;;;;;4191441;28;20264;-77
2023/06/06 01:59:17;;;;;;;4.43;3.50;;;17.30;99.90;;;;;;4194460;28;20759;-77
2023/06/06 02:01:20;;;;;;;6.43;3.60;;;17.30;99.90;;;;;;4193710;28;20304;-77
2023/06/06 02:03:22;;;;;;;6.47;3.60;;;17.30;99.90;;;;;;4194328;28;20227;-77
2023/06/06 02:05:24;;;;;;;5.03;3.40;;;17.30;99.90;;;;;;4196163;28;20235;-77
2023/06/06 02:07:26;;;;;;;4.53;3.43;;;17.20;99.90;;;;;;4191883;28;20529;-77
2023/06/06 02:09:28;;;;;;;4.53;3.60;;;17.30;99.90;;;;;;4198288;28;20213;-77
2023/06/06 02:11:31;;;;;;;5.50;3.30;;;17.20;99.90;;;;;;4195291;28;20672;-77
2023/06/06 02:13:33;;;;;;;5.80;3.53;;;17.20;99.90;;;;;;4194842;28;20543;-77
2023/06/06 02:15:35;;;;;;;6.53;4.00;;;17.20;99.90;;;;;;4197766;28;20329;-77
2023/06/06 02:17:37;;;;;;;4.70;3.40;;;17.10;99.90;;;;;;4197389;28;20619;-77
2023/06/06 02:19:38;;;;;;;5.77;3.50;;;17.10;99.90;;;;;;4198115;28;20206;-77
2023/06/06 02:21:40;;;;;;;5.10;3.47;;;17.10;99.90;;;;;;4194941;28;20610;-77
2023/06/06 02:23:42;;;;;;;4.07;3.03;;;17.10;99.90;;;;;;4196253;28;20250;-76
2023/06/06 02:25:44;;;;;;;4.77;3.03;;;17.10;99.90;;;;;;4194059;28;20207;-77
2023/06/06 02:27:48;;;;;;;6.67;3.50;;;17.10;99.90;;;;;;4197770;28;20222;-76
2023/06/06 02:29:50;;;;;;;5.87;3.40;;;17.10;99.90;;;;;;4196689;28;20566;-77
2023/06/06 02:31:52;;;;;;;5.37;3.50;;;17.10;99.90;;;;;;4195247;28;20218;-77
2023/06/06 02:33:54;;;;;;;5.17;3.30;;;17.00;99.90;;;;;;4196003;28;20240;-77
2023/06/06 02:35:56;;;;;;;4.67;3.17;;;17.00;99.90;;;;;;4192759;28;20220;-77
2023/06/06 02:37:57;;;;;;;5.20;3.00;;;17.00;99.90;;;;;;4192462;28;20206;-76
2023/06/06 02:40:05;;;;;;;5.37;3.60;;;17.00;99.90;;;;;;4196590;28;20213;-77
2023/06/06 02:42:08;;;;;;;6.40;4.13;;;17.00;99.90;;;;;;4197545;28;20244;-77
2023/06/06 02:44:11;;;;;;;5.20;3.33;;;17.00;99.90;;;;;;4197023;28;20206;-77
2023/06/06 02:46:13;;;;;;;5.07;3.43;;;17.00;99.90;;;;;;4194822;28;20206;-77
2023/06/06 02:48:15;;;;;;;4.53;3.30;;;17.00;99.90;;;;;;4190271;28;20206;-77
2023/06/06 02:50:19;;;;;;;5.67;3.60;;;16.90;99.90;;;;;;4193585;28;20655;-77
2023/06/06 02:52:22;;;;;;;4.23;3.03;;;16.90;99.90;;;;;;4196904;28;20259;-78
2023/06/06 02:54:24;;;;;;;5.17;3.20;;;16.90;99.90;;;;;;4194005;28;20313;-77
2023/06/06 02:56:26;;;;;;;4.37;3.40;;;16.90;99.90;;;;;;4194225;28;20245;-77
2023/06/06 02:58:29;;;;;;;5.97;3.37;;;16.90;99.90;;;;;;4197614;28;21134;-77
2023/06/06 03:00:32;;;;;;;5.20;3.30;;;16.90;99.90;;;;;;4197675;28;20213;-77
2023/06/06 03:02:34;;;;;;;5.90;3.23;;;16.90;99.90;;;;;;4193554;28;20256;-78
2023/06/06 03:04:37;;;;;;;5.03;3.40;;;16.90;99.90;;;;;;4196601;28;20300;-78
2023/06/06 03:06:40;;;;;;;4.50;3.00;;;16.80;99.90;;;;;;4195690;28;20308;-78
2023/06/06 03:08:43;;;;;;;4.73;3.00;;;16.80;99.90;;;;;;4195524;28;20213;-78
2023/06/06 03:10:46;;;;;;;5.00;2.90;;;16.80;99.90;;;;;;4194601;28;20213;-78
2023/06/06 03:12:48;;;;;;;5.23;3.30;;;16.80;99.90;;;;;;4196125;28;20229;-78
2023/06/06 03:14:50;;;;;;;4.60;3.00;;;16.80;99.90;;;;;;4196940;28;20264;-78
2023/06/06 03:16:55;;;;;;;4.40;3.03;;;16.80;99.90;;;;;;4197669;28;20703;-78
2023/06/06 03:18:57;;;;;;;5.43;2.93;;;16.70;99.90;;;;;;4196573;28;20236;-78
2023/06/06 03:20:59;;;;;;;7.27;3.40;;;16.70;99.90;;;;;;4196531;28;20632;-78
2023/06/06 03:23:01;;;;;;;4.77;3.37;;;16.70;99.90;;;;;;4193768;28;20237;-78
2023/06/06 03:25:04;;;;;;;5.40;3.53;;;16.70;99.90;;;;;;4195381;28;20206;-78
2023/06/06 03:27:06;;;;;;;4.67;3.20;;;16.70;99.90;;;;;;4195379;28;20652;-78
2023/06/06 03:29:08;;;;;;;5.53;3.37;;;16.70;99.90;;;;;;4196289;28;20244;-78
2023/06/06 03:31:11;;;;;;;3.93;3.13;;;16.70;99.90;;;;;;4193454;28;20210;-78
2023/06/06 03:33:15;;;;;;;5.27;3.33;;;16.70;99.90;;;;;;4195918;28;20241;-78
2023/06/06 03:35:17;;;;;;;5.13;3.30;;;16.60;99.90;;;;;;4192774;28;20210;-78
2023/06/06 03:37:19;;;;;;;4.30;3.10;;;16.60;99.90;;;;;;4193215;28;20214;-78
2023/06/06 03:39:21;;;;;;;4.03;2.90;;;16.60;99.90;;;;;;4197374;28;20319;-78
2023/06/06 03:41:23;;;;;;;5.17;3.23;;;16.60;99.90;;;;;;4193699;28;20650;-79
2023/06/06 03:43:25;;;;;;;5.13;3.47;;;16.50;99.90;;;;;;4195082;28;20229;-79
2023/06/06 03:45:27;;;;;;;3.77;2.80;;;16.50;99.90;;;;;;4194950;28;20237;-79
2023/06/06 03:47:28;;;;;;;6.10;3.17;;;16.40;99.90;;;;;;4197475;28;20309;-79
2023/06/06 03:49:36;;;;;;;3.77;2.90;;;16.30;99.90;;;;;;4196465;28;20640;-79
2023/06/06 03:51:40;;;;;;;3.83;3.07;;;16.30;99.90;;;;;;4194929;28;20212;-79
2023/06/06 03:53:42;;;;;;;5.30;3.23;;;16.20;99.90;;;;;;4196612;28;20241;-79
2023/06/06 03:55:46;;;;;;;5.00;3.23;;;16.10;99.90;;;;;;4194787;28;21313;-77
2023/06/06 03:57:48;;;;;;;5.40;3.20;;;16.10;99.90;;;;;;4196087;28;20934;-79
2023/06/06 03:59:50;;;;;;;5.93;3.87;;;16.00;99.90;;;;;;4196803;28;20217;-79
2023/06/06 04:01:52;;;;;;;5.37;3.50;;;15.90;99.90;;;;;;4195997;28;20213;-79
2023/06/06 04:03:54;;;;;;;5.80;3.50;;;15.90;99.90;;;;;;4195593;28;20300;-78
2023/06/06 04:06:00;;;;;;;5.30;3.70;;;15.80;99.90;;;;;;4193147;28;20301;-79
2023/06/06 04:08:02;;;;;;;3.97;3.23;;;15.80;99.90;;;;;;4195455;28;20332;-79
2023/06/06 04:10:05;;;;;;;6.43;3.80;;;15.80;99.90;;;;;;4197721;28;20574;-79
2023/06/06 04:12:08;;;;;;;6.13;3.57;;;15.70;99.90;;;;;;4192363;28;20817;-79
2023/06/06 04:14:11;;;;;;;5.37;3.73;;;15.70;99.90;;;;;;4195541;28;20229;-79
2023/06/06 04:16:16;;;;;;;5.87;4.03;;;15.60;99.90;;;;;;4191587;28;20292;-79
2023/06/06 04:18:18;;;;;;;8.20;3.90;;;15.60;99.90;;;;;;4195016;28;20239;-79
2023/06/06 04:20:23;;;;;;;6.50;3.93;;;15.60;99.90;;;;;;4194159;28;20309;-79
2023/06/06 04:22:27;;;;;;;5.60;4.17;;;15.60;99.90;;;;;;4187847;28;20212;-78
2023/06/06 04:24:29;;;;;;;8.80;4.27;;;15.60;99.90;;;;;;4193890;28;20339;-78
2023/06/06 04:26:31;;;;;;;6.70;4.30;;;15.60;99.90;;;;;;4193677;28;20350;-78
2023/06/06 04:28:33;;;;;;;7.70;4.53;;;15.60;99.90;;;;;;4192766;28;20259;-79
2023/06/06 04:30:35;;;;;;;6.50;4.50;;;15.60;99.90;;;;;;4194733;28;20255;-79
2023/06/06 04:32:39;;;;;;;6.40;4.37;;;15.60;99.90;;;;;;4193499;28;20237;-78
2023/06/06 04:34:45;;;;;;;8.37;4.53;;;15.60;99.90;;;;;;4194847;28;20714;-78
2023/06/06 04:36:47;;;;;;;6.87;4.43;;;15.50;99.90;;;;;;4188473;28;20217;-79
2023/06/06 04:38:51;;;;;;;6.40;4.53;;;15.50;99.90;;;;;;4193615;28;20213;-78
2023/06/06 04:40:53;;;;;;;6.60;4.30;;;15.60;99.90;;;;;;4187264;28;20289;-78
2023/06/06 04:42:58;;;;;;;6.43;4.50;;;15.50;99.90;;;;;;4196219;28;20233;-78
2023/06/06 04:45:02;;;;;;;7.23;4.50;;;15.50;99.90;;;;;;4191244;28;20209;-78
2023/06/06 04:47:04;;;;;;;6.40;4.37;;;15.50;99.90;;;;;;4191997;28;20213;-78
2023/06/06 04:49:08;;;;;;;7.60;4.10;;;15.50;99.90;;;;;;4195255;28;20771;-78
2023/06/06 04:51:10;;;;;;;6.70;4.00;;;15.50;99.90;;;;;;4191554;28;20313;-78
2023/06/06 04:53:12;;;;;;;7.07;4.53;;;15.50;99.90;;;;;;4192008;28;20616;-78
2023/06/06 04:55:16;;;;;;;7.83;4.40;;;15.50;99.90;;;;;;4185601;28;20724;-78
2023/06/06 04:57:19;;;;;;;7.10;4.30;;;15.50;99.90;;;;;;4192378;28;20259;-78
2023/06/06 04:59:22;;;;;;;7.47;4.50;;;15.40;99.90;;;;;;4194585;28;20206;-78
2023/06/06 05:01:24;;;;;;;5.67;3.87;;;15.40;99.90;;;;;;4190557;28;20287;-78
2023/06/06 05:03:29;;;;;;;8.63;4.27;;;15.50;99.90;;;;;;4197658;28;20232;-78
2023/06/06 05:05:31;;;;;;;7.03;4.00;;;15.40;99.90;;;;;;4194254;28;20244;-79
2023/06/06 05:07:33;;;;;;;7.07;4.50;;;15.40;99.90;;;;;;4194000;28;20223;-79
2023/06/06 05:09:38;;;;;;;7.27;4.37;;;15.40;99.90;;;;;;4195937;28;20209;-78
2023/06/06 05:11:45;;;;;;;7.90;4.80;;;15.40;99.90;;;;;;4186124;28;20301;-79
2023/06/06 05:13:47;;;;;;;5.70;4.33;;;15.40;99.90;;;;;;4191284;28;20726;-78
2023/06/06 05:15:49;;;;;;;5.77;3.93;;;15.30;99.90;;;;;;4192383;28;20312;-78
2023/06/06 05:17:57;;;;;;;6.73;4.03;;;15.30;99.90;;;;;;4193255;28;20663;-78
2023/06/06 05:19:59;;;;;;;6.27;3.60;;;15.30;99.90;;;;;;4193578;28;20614;-78
2023/06/06 05:22:01;;;;;;;6.80;4.70;;;15.30;99.90;;;;;;4184562;28;20304;-78
2023/06/06 05:24:03;;;;;;;10.07;5.90;;;15.30;99.90;;;;;;4193580;28;20248;-78
2023/06/06 05:26:05;;;;;;;9.33;5.47;;;15.30;99.90;;;;;;4194566;28;20208;-78
2023/06/06 05:28:11;;;;;;;6.93;4.77;;;15.20;99.90;;;;;;4192981;28;20205;-78
2023/06/06 05:30:14;;;;;;;8.03;5.10;;;15.20;99.90;;;;;;4189322;28;20246;-78
2023/06/06 05:32:16;;;;;;;8.47;4.97;;;15.20;99.90;;;;;;4193929;28;20583;-78
2023/06/06 05:34:18;;;;;;;9.60;5.33;;;15.20;99.90;;;;;;4192507;28;20320;-78
2023/06/06 05:36:20;;;;;;;10.30;5.57;;;15.20;99.90;;;;;;4190236;28;20218;-77
2023/06/06 05:38:23;;;;;;;8.93;5.07;;;15.20;99.90;;;;;;4192518;28;20212;-78
2023/06/06 05:40:25;;;;;;;8.20;5.30;;;15.20;99.90;;;;;;4196145;28;20228;-76
2023/06/06 05:42:26;;;;;;;7.20;4.87;;;15.20;99.90;;;;;;4197940;28;20224;-77
2023/06/06 05:44:30;;;;;;;7.40;4.67;;;15.20;99.90;;;;;;4194446;28;20219;-77
2023/06/06 05:46:32;;;;;;;6.83;4.23;;;15.20;99.90;;;;;;4194555;28;20639;-77
2023/06/06 05:48:33;;;;;;;5.40;4.03;;;15.20;99.90;;;;;;4197132;28;20554;-77
2023/06/06 05:50:35;;;;;;;7.60;4.03;;;15.20;99.90;;;;;;4195831;28;20221;-77
2023/06/06 05:52:37;;;;;;;4.73;3.80;;;15.20;99.90;;;;;;4192332;28;20323;-77
2023/06/06 05:54:39;;;;;;;7.43;4.00;;;15.20;99.90;;;;;;4194724;28;20226;-76
2023/06/06 05:56:41;;;;;;;5.30;3.83;;;15.20;99.90;;;;;;4196590;28;20203;-78
2023/06/06 05:58:45;;;;;;;5.43;4.30;;;15.20;99.90;;;;;;4196810;28;20215;-78
2023/06/06 06:00:48;;;;;;;5.57;3.87;;;15.20;99.90;;;;;;4191910;28;20217;-78
2023/06/06 06:02:51;;;;;;;6.03;3.80;;;15.20;99.90;;;;;;4195856;28;20328;-77
2023/06/06 06:04:53;;;;;;;5.40;3.80;;;15.30;99.90;;;;;;4191296;28;20209;-77
2023/06/06 06:06:55;;;;;;;7.87;4.13;;;15.30;99.90;;;;;;4179890;28;20304;-77
2023/06/06 06:08:57;;;;;;;6.07;3.83;;;15.30;99.90;;;;;;4187421;28;20247;-77
2023/06/06 06:10:59;;;;;;;8.43;4.57;;;15.30;99.90;;;;;;4178923;28;20272;-77
2023/06/06 06:13:02;;;;;;;5.70;4.20;;;15.30;99.90;;;;;;4183309;28;20232;-77
2023/06/06 06:15:05;;;;;;;6.53;4.23;;;15.30;99.90;;;;;;4186751;28;20224;-77
2023/06/06 06:17:08;;;;;;;6.13;4.43;;;15.30;99.90;;;;;;4182520;28;20738;-77
2023/06/06 06:19:10;;;;;;;5.37;4.10;;;15.30;99.90;;;;;;4192436;28;20213;-77
2023/06/06 06:21:12;;;;;;;7.43;3.80;;;15.40;99.90;;;;;;4192393;28;20247;-76
2023/06/06 06:23:14;;;;;;;6.37;3.90;;;15.30;99.90;;;;;;4194705;28;20631;-76
2023/06/06 06:25:16;;;;;;;6.23;4.13;;;15.40;99.90;;;;;;4194192;28;20216;-76
2023/06/06 06:27:21;;;;;;;5.57;3.90;;;15.40;99.90;;;;;;4193297;28;20225;-76
2023/06/06 06:29:23;;;;;;;6.37;3.77;;;15.40;99.90;;;;;;4194394;28;20209;-76
2023/06/06 06:31:26;;;;;;;5.77;3.97;;;15.40;99.90;;;;;;4192841;28;20214;-76
2023/06/06 06:33:33;;;;;;;6.03;4.27;;;15.40;99.90;;;;;;4194178;28;20221;-77
2023/06/06 06:35:35;;;;;;;6.27;4.20;;;15.40;99.90;;;;;;4193804;28;20302;-76
2023/06/06 06:37:39;;;;;;;5.77;4.10;;;15.40;99.90;;;;;;4194208;28;20213;-76
2023/06/06 06:39:41;;;;;;;6.20;4.07;;;15.40;99.90;;;;;;4193769;28;20209;-77
2023/06/06 06:41:43;;;;;;;6.90;3.97;;;15.50;99.90;;;;;;4194627;28;20205;-76
2023/06/06 06:43:45;;;;;;;6.90;4.47;;;15.50;99.90;;;;;;4194478;28;20226;-76
2023/06/06 06:45:47;;;;;;;6.47;4.23;;;15.50;99.90;;;;;;4193031;28;20248;-76
2023/06/06 06:47:49;;;;;;;6.33;4.10;;;15.50;99.90;;;;;;4192809;28;20220;-76
2023/06/06 06:49:52;;;;;;;6.97;4.20;;;15.50;99.90;;;;;;4191739;28;20217;-76
2023/06/06 06:51:54;;;;;;;7.07;4.40;;;15.50;99.90;;;;;;4192557;28;20213;-76
2023/06/06 06:53:57;;;;;;;7.20;4.00;;;15.50;99.90;;;;;;4192368;28;20598;-75
2023/06/06 06:55:59;;;;;;;4.87;3.97;;;15.60;99.90;;;;;;4193172;28;20263;-76
2023/06/06 06:58:01;;;;;;;7.00;4.33;;;15.60;99.90;;;;;;4191643;28;20247;-76
2023/06/06 07:00:11;;;;;;;4.67;3.63;;;15.70;99.90;;;;;;4192422;28;20594;-75
2023/06/06 07:02:13;;;;;;;5.70;3.73;;;15.80;99.90;;;;;;4192681;28;20213;-76
2023/06/06 07:04:16;;;;;;;6.03;3.80;;;15.80;99.90;;;;;;4193568;28;20683;-76
2023/06/06 07:06:20;;;;;;;5.00;3.80;;;15.90;99.90;;;;;;4192810;28;21056;-76
2023/06/06 07:08:22;;;;;;;4.83;3.70;;;16.00;99.90;;;;;;4191904;28;20210;-76
2023/06/06 07:10:25;;;;;;;7.03;3.60;;;16.00;99.90;;;;;;4194225;28;20210;-76
2023/06/06 07:12:27;;;;;;;5.73;3.67;;;16.10;99.90;;;;;;4192669;28;20224;-76
2023/06/06 07:14:29;;;;;;;5.53;4.10;;;16.10;99.90;;;;;;4193420;28;20226;-75
2023/06/06 07:16:34;;;;;;;4.77;3.63;;;16.20;99.90;;;;;;4192123;28;20304;-76
2023/06/06 07:18:35;;;;;;;5.23;3.80;;;16.20;99.90;;;;;;4192185;28;20263;-76
2023/06/06 07:20:38;;;;;;;7.00;3.90;;;16.20;99.90;;;;;;4191358;28;20209;-75
2023/06/06 07:22:41;;;;;;;6.17;4.00;;;16.20;99.90;;;;;;4193757;28;20320;-76
2023/06/06 07:24:45;;;;;;;6.03;3.80;;;16.20;99.90;;;;;;4193253;28;20671;-76
2023/06/06 07:26:47;;;;;;;4.50;3.30;;;16.30;99.90;;;;;;4193149;28;20210;-76
2023/06/06 07:28:49;;;;;;;5.80;3.53;;;16.30;99.90;;;;;;4193086;28;20635;-76
2023/06/06 07:30:51;;;;;;;5.17;3.97;;;16.40;99.90;;;;;;4189574;28;20210;-74
2023/06/06 07:32:53;;;;;;;6.10;3.80;;;16.40;99.90;;;;;;4190412;28;20233;-74
2023/06/06 07:34:55;;;;;;;5.23;3.80;;;16.50;99.90;;;;;;4192699;28;20214;-75
2023/06/06 07:36:58;;;;;;;4.40;3.30;;;16.50;99.90;;;;;;4192140;28;20317;-75
2023/06/06 07:39:01;;;;;;;4.93;3.70;;;16.60;99.90;;;;;;4193934;28;20308;-75
2023/06/06 07:41:03;;;;;;;5.40;3.87;;;16.70;99.90;;;;;;4193529;28;20218;-74
2023/06/06 07:43:05;;;;;;;5.83;3.93;;;16.70;99.90;;;;;;4194103;28;20665;-74
2023/06/06 07:45:08;;;;;;;4.83;3.70;;;16.80;99.90;;;;;;4193597;28;20229;-75
2023/06/06 07:47:10;;;;;;;5.10;3.97;;;16.90;99.90;;;;;;4190893;28;20788;-75
2023/06/06 07:49:12;;;;;;;4.50;3.53;;;17.00;99.90;;;;;;4194554;28;20654;-74
2023/06/06 07:51:14;;;;;;;5.23;3.50;;;17.10;99.90;;;;;;4193399;28;20215;-75
2023/06/06 07:53:16;;;;;;;5.97;3.93;;;17.20;99.90;;;;;;4194326;28;20230;-75
2023/06/06 07:55:20;;;;;;;5.53;3.83;;;17.30;99.90;;;;;;4194801;28;20328;-75
2023/06/06 07:57:23;;;;;;;4.63;3.50;;;17.40;99.90;;;;;;4192653;28;20688;-75
2023/06/06 07:59:26;;;;;;;6.03;3.97;;;17.40;99.90;;;;;;4194451;28;20208;-75
2023/06/06 08:01:28;;;;;;;4.23;3.47;;;17.50;99.90;;;;;;4194392;28;20703;-75
2023/06/06 08:03:30;;;;;;;8.37;4.80;;;17.60;99.90;;;;;;4192628;28;20384;-75
2023/06/06 08:05:34;;;;;;;4.47;3.40;;;17.60;99.90;;;;;;4193935;28;20291;-74
2023/06/06 08:07:36;;;;;;;6.17;3.90;;;17.70;99.90;;;;;;4194638;28;20239;-74
2023/06/06 08:09:38;;;;;;;6.53;3.77;;;17.70;99.90;;;;;;4191501;28;20213;-74
2023/06/06 08:11:41;;;;;;;6.57;3.90;;;17.80;99.90;;;;;;4192736;28;20306;-75
2023/06/06 08:13:43;;;;;;;5.13;3.60;;;17.90;99.90;;;;;;4191053;28;20259;-74
2023/06/06 08:15:45;;;;;;;7.90;4.77;;;18.00;99.90;;;;;;4193187;28;21722;-75
2023/06/06 08:17:47;;;;;;;6.63;4.23;;;18.10;99.90;;;;;;4189785;28;20716;-75
2023/06/06 08:19:49;;;;;;;5.83;3.73;;;18.10;99.90;;;;;;4191540;28;20299;-75
2023/06/06 08:21:51;;;;;;;6.47;4.10;;;18.20;99.90;;;;;;4193494;28;20653;-74
2023/06/06 08:23:53;;;;;;;6.17;4.10;;;18.20;99.90;;;;;;4193324;28;21035;-75
2023/06/06 08:25:55;;;;;;;7.03;4.17;;;18.20;99.90;;;;;;4192802;28;20669;-75
2023/06/06 08:27:59;;;;;;;5.50;3.90;;;18.20;99.90;;;;;;4193966;28;20215;-75
2023/06/06 08:30:02;;;;;;;4.87;4.00;;;18.30;99.90;;;;;;4193288;28;20262;-76
2023/06/06 08:32:06;;;;;;;6.10;4.07;;;18.30;99.90;;;;;;4192293;28;20335;-76
2023/06/06 08:34:08;;;;;;;5.93;4.20;;;18.30;99.90;;;;;;4192180;28;20228;-78
2023/06/06 08:36:10;;;;;;;7.27;4.07;;;18.40;99.90;;;;;;4191915;28;20249;-75
2023/06/06 08:38:12;;;;;;;5.03;3.80;;;18.40;99.90;;;;;;4191343;28;20676;-77
2023/06/06 08:40:14;;;;;;;6.10;3.97;;;18.50;99.90;;;;;;4192787;28;20548;-77
2023/06/06 08:42:19;;;;;;;7.73;4.30;;;18.50;99.90;;;;;;4194368;28;20296;-77
2023/06/06 08:44:23;;;;;;;5.30;4.10;;;18.50;99.90;;;;;;4193898;28;20235;-77
2023/06/06 08:46:26;;;;;;;6.60;4.43;;;18.60;99.90;;;;;;4188012;28;20209;-74
2023/06/06 08:48:29;;;;;;;7.27;3.90;;;18.60;99.90;;;;;;4190718;28;20206;-73
2023/06/06 08:50:32;;;;;;;5.30;4.00;;;18.70;99.90;;;;;;4191901;28;20225;-74
2023/06/06 08:52:35;;;;;;;8.20;4.60;;;18.80;99.90;;;;;;4190571;28;20228;-74
2023/06/06 08:54:38;;;;;;;6.97;4.37;;;18.90;99.90;;;;;;4188920;28;20260;-74
2023/06/06 08:56:42;;;;;;;6.00;4.00;;;19.00;99.90;;;;;;4192304;28;20777;-74
2023/06/06 08:58:46;;;;;;;6.27;3.90;;;19.10;99.90;;;;;;4191571;28;20302;-74
2023/06/06 09:00:50;;;;;;;5.60;4.00;;;19.20;99.90;;;;;;4192556;28;20240;-74
2023/06/06 09:02:53;;;;;;;5.57;4.13;;;19.30;99.90;;;;;;4191683;28;20526;-74
2023/06/06 09:04:58;;;;;;;6.20;4.27;;;19.40;99.90;;;;;;4192868;28;20221;-75
2023/06/06 09:07:04;;;;;;;5.30;3.77;;;19.50;99.90;;;;;;4193522;28;20202;-74
2023/06/06 09:09:09;;;;;;;7.33;4.23;;;19.60;99.90;;;;;;4190684;28;20213;-74
2023/06/06 09:11:11;;;;;;;5.43;4.10;;;19.60;99.90;;;;;;4193008;28;20292;-74
2023/06/06 09:13:13;;;;;;;4.87;3.87;;;19.70;99.90;;;;;;4192396;28;20320;-74
2023/06/06 09:15:16;;;;;;;6.67;4.47;;;19.80;99.90;;;;;;4189629;28;20225;-74
2023/06/06 09:17:19;;;;;;;5.60;4.43;;;19.80;99.90;;;;;;4192151;28;20663;-74
2023/06/06 09:19:25;;;;;;;5.90;4.30;;;19.80;99.90;;;;;;4191117;28;20216;-74
2023/06/06 09:21:29;;;;;;;5.70;4.17;;;19.90;99.90;;;;;;4188042;28;20208;-74
2023/06/06 09:23:32;;;;;;;5.13;4.00;;;19.90;99.90;;;;;;4191994;28;20232;-74
2023/06/06 09:25:34;;;;;;;6.57;3.97;;;20.00;99.90;;;;;;4193271;28;20256;-74
2023/06/06 09:27:36;;;;;;;5.07;3.87;;;20.00;99.90;;;;;;4193931;28;20255;-74
2023/06/06 09:29:39;;;;;;;7.37;4.70;;;20.20;99.90;;;;;;4192885;28;20288;-73
2023/06/06 09:31:42;;;;;;;5.83;4.47;;;20.30;99.90;;;;;;4188626;28;20213;-74
2023/06/06 09:33:46;;;;;;;6.23;4.70;;;20.40;99.90;;;;;;4191665;28;20622;-74
2023/06/06 09:35:48;;;;;;;8.30;5.47;;;20.60;99.90;;;;;;4193071;28;20231;-75
2023/06/06 09:37:50;;;;;;;6.50;4.50;;;20.60;99.90;;;;;;4193460;28;20816;-76
2023/06/06 09:40:13;;;;;;;6.07;4.73;;;20.80;99.90;;;;;;4196168;28;20258;-76
2023/06/06 09:42:15;;;;;;;5.47;4.00;;;20.90;99.90;;;;;;4192147;28;20225;-76
2023/06/06 09:44:21;;;;;;;5.73;4.30;;;21.10;99.90;;;;;;4194669;28;20239;-76
2023/06/06 09:46:24;;;;;;;4.80;3.90;;;21.20;99.90;;;;;;4194451;28;20249;-78
2023/06/06 09:48:28;;;;;;;6.00;4.00;;;21.30;99.90;;;;;;4194390;28;20664;-78
2023/06/06 09:50:32;;;;;;;5.20;4.10;;;21.30;99.90;;;;;;4190029;28;20206;-77
2023/06/06 09:52:34;;;;;;;5.63;4.00;;;21.40;99.90;;;;;;4192761;28;20327;-76
2023/06/06 09:54:37;;;;;;;7.23;4.00;;;21.40;99.90;;;;;;4193024;28;20261;-77
2023/06/06 09:56:42;;;;;;;5.57;3.73;;;21.50;99.90;;;;;;4191438;28;20787;-79
2023/06/06 09:58:45;;;;;;;4.77;4.10;;;21.50;99.90;;;;;;4192946;28;20207;-77
2023/06/06 10:00:48;;;;;;;5.77;4.00;;;21.60;99.90;;;;;;4193580;28;20217;-78
2023/06/06 10:02:51;;;;;;;5.37;4.10;;;21.60;99.90;;;;;;4192722;28;20238;-78
2023/06/06 10:04:54;;;;;;;5.37;3.97;;;21.70;99.90;;;;;;4190839;28;20287;-76
2023/06/06 10:07:02;;;;;;;4.87;3.93;;;21.70;99.90;;;;;;4191481;28;20626;-77
2023/06/06 10:09:05;;;;;;;5.60;4.20;;;21.70;99.90;;;;;;4194035;28;20278;-79
2023/06/06 10:11:08;;;;;;;7.30;4.30;;;21.70;99.90;;;;;;4194184;28;20215;-80
2023/06/06 10:13:13;;;;;;;5.63;4.17;;;21.80;99.90;;;;;;4192403;28;20235;-78
2023/06/06 10:15:17;;;;;;;6.07;4.00;;;21.90;99.90;;;;;;4190997;28;20267;-78
2023/06/06 10:17:20;;;;;;;5.80;3.97;;;21.90;99.90;;;;;;4192480;28;20212;-77
2023/06/06 10:19:25;;;;;;;7.00;4.03;;;21.90;99.90;;;;;;4194157;28;20208;-76
2023/06/06 10:21:29;;;;;;;4.70;3.73;;;22.00;99.90;;;;;;4192064;28;20670;-76
2023/06/06 10:23:32;;;;;;;6.17;3.87;;;22.00;99.90;;;;;;4193550;28;20312;-77
2023/06/06 10:25:36;;;;;;;4.77;3.53;;;22.00;99.90;;;;;;4194760;28;21056;-75
2023/06/06 10:27:48;;;;;;;5.07;3.80;;;22.00;99.90;;;;;;4197606;28;20215;-76
2023/06/06 10:29:55;;;;;;;4.97;3.80;;;22.00;99.90;;;;;;4193992;28;20219;-76
2023/06/06 10:31:59;;;;;;;4.67;3.83;;;22.10;99.90;;;;;;4193227;28;20225;-76
2023/06/06 10:34:06;;;;;;;4.33;3.27;;;22.10;99.90;;;;;;4198517;28;20695;-75
2023/06/06 10:36:09;;;;;;;4.50;3.57;;;22.20;99.90;;;;;;4195473;28;20220;-76
2023/06/06 10:38:11;;;;;;;5.27;3.77;;;22.20;99.90;;;;;;4194031;28;20217;-76
2023/06/06 10:40:15;;;;;;;6.07;3.70;;;22.20;99.90;;;;;;4195594;28;20208;-77
2023/06/06 10:42:17;;;;;;;4.33;3.77;;;22.30;99.90;;;;;;4194611;28;20237;-76